Time;durP1;ratioP1;P1;durP2;ratioP2;P2;SDS_P1;SDS_P2;PMS_P1;PMS_P2;Temp;Humidity;BMP_temperature;BMP_pressure;BME280_temperature;BME280_humidity;BME280_pressure;Samples;Min_cycle;Max_cycle;Signal;HPM_P1;HPM_P2
2023/04/21 00:02:17;;;;;;;;;34.00;28.75;;;;;6.82;62.70;100948.91;6250196;22;51710;-72
2023/04/21 00:04:44;;;;;;;;;39.75;28.00;;;;;6.75;61.23;100946.84;6277838;22;45299;-74
2023/04/21 00:07:10;;;;;;;;;29.00;22.25;;;;;6.73;62.59;100947.69;6278885;22;45190;-73
2023/04/21 00:09:35;;;;;;;;;27.00;25.75;;;;;6.58;62.80;100918.19;6250364;22;45554;-74
2023/04/21 00:12:01;;;;;;;;;31.00;27.00;;;;;6.72;62.88;100937.13;6277867;22;45271;-74
2023/04/21 00:14:26;;;;;;;;;35.50;29.25;;;;;6.56;62.86;100913.69;6277670;22;45264;-74
2023/04/21 00:16:52;;;;;;;;;43.25;30.00;;;;;6.52;64.32;100903.88;6277234;22;45267;-73
2023/04/21 00:19:18;;;;;;;;;37.50;24.50;;;;;6.50;62.94;100915.22;6278106;22;45450;-74
2023/04/21 00:21:44;;;;;;;;;34.25;29.00;;;;;6.41;63.22;100899.09;6249805;22;46631;-74
2023/04/21 00:24:09;;;;;;;;;39.00;29.25;;;;;6.45;61.10;100913.22;6277897;22;45216;-74
2023/04/21 00:26:35;;;;;;;;;35.00;27.75;;;;;6.53;63.80;100924.06;6278067;22;45706;-74
2023/04/21 00:29:00;;;;;;;;;32.00;24.75;;;;;6.25;61.38;100876.53;6249966;22;46852;-74
2023/04/21 00:31:25;;;;;;;;;36.25;29.50;;;;;6.36;62.74;100899.69;6249949;22;46949;-74
2023/04/21 00:33:51;;;;;;;;;35.75;27.75;;;;;6.53;64.21;100922.34;6250609;22;45285;-74
2023/04/21 00:36:16;;;;;;;;;31.50;28.75;;;;;6.17;62.09;100858.66;6277457;22;49569;-74
2023/04/21 00:38:41;;;;;;;;;33.25;29.50;;;;;6.33;63.88;100897.84;6277936;22;49106;-74
2023/04/21 00:41:07;;;;;;;;;32.00;29.00;;;;;6.32;63.72;100889.91;6278161;22;45192;-74
2023/04/21 00:43:32;;;;;;;;;34.25;31.00;;;;;6.12;66.86;100855.81;6278445;22;45147;-74
2023/04/21 00:45:57;;;;;;;;;28.75;26.25;;;;;6.35;64.46;100896.16;6277547;22;45247;-74
2023/04/21 00:48:22;;;;;;;;;36.50;27.00;;;;;6.36;63.86;100891.81;6250209;22;45570;-74
2023/04/21 00:50:48;;;;;;;;;35.50;30.25;;;;;6.32;63.94;100896.03;6277359;22;46723;-74
2023/04/21 00:53:14;;;;;;;;;31.25;26.75;;;;;6.31;60.84;100891.63;6278157;22;44590;-74
2023/04/21 00:55:40;;;;;;;;;33.75;28.50;;;;;6.30;63.14;100894.19;6277926;22;45194;-75
2023/04/21 00:58:06;;;;;;;;;32.00;27.25;;;;;6.15;65.48;100866.44;6278153;22;45207;-74
2023/04/21 01:00:31;;;;;;;;;28.00;25.25;;;;;5.94;64.39;100827.06;6277080;22;45252;-74
2023/04/21 01:02:59;;;;;;;;;33.50;25.50;;;;;6.11;63.43;100858.41;6277974;22;45256;-74
2023/04/21 01:05:25;;;;;;;;;39.00;29.00;;;;;6.20;63.63;100885.91;6249447;22;45213;-74
2023/04/21 01:07:50;;;;;;;;;30.75;25.75;;;;;5.99;66.25;100837.75;6250462;22;47083;-74
2023/04/21 01:10:15;;;;;;;;;24.25;18.00;;;;;6.25;64.78;100880.88;6277491;22;45182;-74
2023/04/21 01:12:44;;;;;;;;;31.00;24.75;;;;;6.20;65.39;100870.16;6277868;22;45237;-74
2023/04/21 01:15:15;;;;;;;;;32.50;31.25;;;;;6.29;63.67;100885.41;6276598;22;45277;-74
2023/04/21 01:17:41;;;;;;;;;35.50;30.25;;;;;6.31;64.35;100877.63;6277887;22;45208;-74
2023/04/21 01:20:09;;;;;;;;;28.25;24.00;;;;;6.12;63.85;100833.94;6277308;22;45245;-74
2023/04/21 01:22:40;;;;;;;;;34.50;28.00;;;;;6.06;62.68;100818.81;6278364;22;45467;-74
2023/04/21 01:25:07;;;;;;;;;39.25;34.75;;;;;6.20;64.60;100846.53;6277707;22;45181;-74
2023/04/21 01:27:32;;;;;;;;;30.75;26.75;;;;;6.40;63.39;100868.38;6276609;22;45527;-74
2023/04/21 01:29:58;;;;;;;;;29.25;26.00;;;;;6.30;64.85;100839.94;6277247;22;45341;-74
2023/04/21 01:32:28;;;;;;;;;41.75;31.50;;;;;6.48;65.48;100866.09;6277697;22;46079;-74
2023/04/21 01:34:55;;;;;;;;;34.00;28.75;;;;;6.30;64.69;100831.19;6277805;22;44651;-73
2023/04/21 01:37:24;;;;;;;;;27.50;25.00;;;;;6.38;61.35;100835.91;6278039;22;45360;-73
2023/04/21 01:39:55;;;;;;;;;28.50;27.50;;;;;6.14;64.89;100792.91;6276469;22;45396;-73
2023/04/21 01:42:24;;;;;;;;;28.00;25.50;;;;;6.45;62.83;100834.47;6275494;22;45282;-73
2023/04/21 01:44:52;;;;;;;;;30.50;27.00;;;;;6.67;62.51;100865.13;6277377;22;45271;-73
2023/04/21 01:47:17;;;;;;;;;34.50;27.25;;;;;6.66;62.92;100847.56;6277643;22;45493;-73
2023/04/21 01:49:43;;;;;;;;;26.00;23.00;;;;;6.71;62.26;100846.91;6277755;22;45180;-73
2023/04/21 01:52:08;;;;;;;;;31.25;26.50;;;;;6.41;62.33;100801.00;6278129;22;45217;-73
2023/04/21 01:54:34;;;;;;;;;28.00;26.25;;;;;6.61;63.67;100821.13;6278342;22;45148;-73
2023/04/21 01:57:00;;;;;;;;;29.50;26.25;;;;;6.76;64.45;100838.34;6278149;22;45190;-72
2023/04/21 01:59:26;;;;;;;;;27.50;24.25;;;;;6.80;64.25;100835.88;6277263;22;45636;-74
2023/04/21 02:01:51;;;;;;;;;29.00;25.25;;;;;6.72;64.32;100811.03;6278474;22;45115;-73
2023/04/21 02:04:16;;;;;;;;;32.00;27.00;;;;;6.57;62.70;100774.56;6277832;22;46479;-72
2023/04/21 02:06:41;;;;;;;;;27.50;25.25;;;;;6.71;61.82;100793.47;6278000;22;46494;-73
2023/04/21 02:09:07;;;;;;;;;30.25;26.00;;;;;6.97;63.25;100839.16;6250628;22;45332;-74
2023/04/21 02:11:32;;;;;;;;;25.75;23.00;;;;;6.61;60.99;100771.22;6278496;22;45579;-74
2023/04/21 02:13:58;;;;;;;;;31.25;26.75;;;;;6.81;61.57;100807.91;6277418;22;45314;-74
2023/04/21 02:16:25;;;;;;;;;26.25;25.25;;;;;6.97;63.67;100831.28;6276521;22;45213;-73
2023/04/21 02:18:52;;;;;;;;;29.75;29.25;;;;;6.78;64.90;100797.25;6250272;22;47784;-73
2023/04/21 02:21:19;;;;;;;;;26.75;26.75;;;;;7.01;63.45;100827.97;6276801;22;45284;-73
2023/04/21 02:23:44;;;;;;;;;35.25;31.00;;;;;7.05;63.16;100824.59;6249151;22;44623;-73
2023/04/21 02:26:10;;;;;;;;;28.25;24.00;;;;;6.76;63.94;100767.41;6277226;22;45200;-74
2023/04/21 02:28:35;;;;;;;;;26.50;24.75;;;;;6.94;63.48;100787.38;6277806;22;44815;-74
2023/04/21 02:31:00;;;;;;;;;28.00;23.50;;;;;6.98;63.42;100793.69;6276964;22;45168;-74
2023/04/21 02:33:25;;;;;;;;;34.50;25.00;;;;;6.91;62.17;100783.75;6277928;22;45219;-74
2023/04/21 02:35:51;;;;;;;;;30.75;26.25;;;;;6.94;63.77;100787.38;6277286;22;50736;-75
2023/04/21 02:38:16;;;;;;;;;31.25;25.25;;;;;7.02;63.74;100792.06;6277042;22;54596;-74
2023/04/21 02:40:41;;;;;;;;;28.75;21.75;;;;;7.16;63.91;100809.25;6277008;22;46175;-74
2023/04/21 02:43:07;;;;;;;;;26.75;21.00;;;;;7.00;63.18;100781.50;6277396;22;45426;-74
2023/04/21 02:45:32;;;;;;;;;30.75;25.50;;;;;6.99;63.52;100771.81;6277044;22;45521;-73
2023/04/21 02:47:58;;;;;;;;;31.75;23.25;;;;;7.15;64.05;100789.06;6277473;22;45244;-74
2023/04/21 02:50:23;;;;;;;;;25.00;23.00;;;;;7.22;63.42;100798.06;6277090;22;45256;-73
2023/04/21 02:52:49;;;;;;;;;22.75;20.75;;;;;7.12;62.85;100789.84;6277713;22;45277;-73
2023/04/21 02:55:14;;;;;;;;;20.00;20.00;;;;;7.03;64.42;100775.44;6249366;22;45699;-74
2023/04/21 02:57:40;;;;;;;;;23.00;21.25;;;;;7.07;63.06;100777.38;6249730;22;46728;-74
2023/04/21 03:00:06;;;;;;;;;22.25;18.25;;;;;7.31;63.16;100816.81;6248533;22;45284;-74
2023/04/21 03:02:31;;;;;;;;;32.00;25.00;;;;;7.32;62.88;100816.88;6250152;22;45307;-74
2023/04/21 03:04:57;;;;;;;;;25.50;22.50;;;;;7.21;63.37;100791.91;6277230;22;45187;-73
2023/04/21 03:07:22;;;;;;;;;29.75;25.25;;;;;7.35;62.02;100800.31;6277714;22;45404;-74
2023/04/21 03:09:48;;;;;;;;;27.75;22.25;;;;;7.29;63.53;100795.72;6277197;22;45122;-73
2023/04/21 03:12:13;;;;;;;;;26.50;22.75;;;;;7.15;63.47;100762.78;6277869;22;45178;-73
2023/04/21 03:14:38;;;;;;;;;34.00;28.50;;;;;7.25;62.85;100774.53;6277161;22;45154;-73
2023/04/21 03:17:03;;;;;;;;;24.50;22.50;;;;;7.26;61.34;100773.69;6276652;22;45276;-73
2023/04/21 03:19:30;;;;;;;;;27.00;25.25;;;;;7.23;62.91;100757.81;6276930;22;45206;-73
2023/04/21 03:21:55;;;;;;;;;26.75;25.75;;;;;7.37;62.90;100791.66;6249407;22;45110;-73
2023/04/21 03:24:20;;;;;;;;;27.75;26.25;;;;;7.07;63.29;100745.81;6277113;22;45210;-73
2023/04/21 03:26:46;;;;;;;;;26.75;25.75;;;;;7.40;63.18;100791.78;6276785;22;45952;-73
2023/04/21 03:29:11;;;;;;;;;25.00;22.00;;;;;7.44;62.45;100792.75;6276677;22;45122;-73
2023/04/21 03:31:36;;;;;;;;;25.75;21.50;;;;;7.30;62.60;100762.44;6277219;22;45336;-73
2023/04/21 03:34:02;;;;;;;;;35.00;26.00;;;;;7.46;62.02;100788.47;6249144;22;45184;-73
2023/04/21 03:36:27;;;;;;;;;29.50;24.50;;;;;7.42;63.71;100778.66;6248737;22;50301;-73
2023/04/21 03:38:52;;;;;;;;;27.50;22.75;;;;;7.27;63.32;100743.94;6249419;22;45202;-73
2023/04/21 03:41:18;;;;;;;;;23.50;21.75;;;;;7.16;62.97;100722.50;6276491;22;45374;-73
2023/04/21 03:43:43;;;;;;;;;38.00;26.75;;;;;7.33;62.48;100752.03;6275322;22;45318;-73
2023/04/21 03:46:19;;;;;;;;;27.75;27.00;;;;;7.30;62.04;100749.28;6276409;22;45587;-72
2023/04/21 03:48:45;;;;;;;;;31.00;26.25;;;;;7.35;62.45;100751.25;6275862;22;45280;-73
2023/04/21 03:51:11;;;;;;;;;33.00;32.00;;;;;7.50;63.20;100774.56;6276938;22;45440;-73
2023/04/21 03:53:36;;;;;;;;;44.25;40.50;;;;;7.48;61.37;100773.66;6249197;22;45576;-72
2023/04/21 03:56:02;;;;;;;;;66.25;49.75;;;;;7.42;63.20;100767.25;6276462;22;45219;-72
2023/04/21 03:58:27;;;;;;;;;48.00;37.75;;;;;7.34;62.90;100745.97;6248757;22;45431;-72
2023/04/21 04:00:52;;;;;;;;;47.75;40.00;;;;;7.28;62.02;100744.00;6248149;22;47930;-72
2023/04/21 04:03:18;;;;;;;;;41.00;37.50;;;;;7.13;63.54;100723.28;6277062;22;45134;-72
2023/04/21 04:05:43;;;;;;;;;43.00;35.75;;;;;7.27;63.27;100729.03;6276696;22;47070;-73
2023/04/21 04:08:08;;;;;;;;;42.25;35.75;;;;;7.11;62.95;100697.78;6276894;22;45259;-74
2023/04/21 04:10:34;;;;;;;;;29.50;27.00;;;;;7.39;62.42;100728.59;6277275;22;45124;-74
2023/04/21 04:12:59;;;;;;;;;32.75;28.00;;;;;7.53;63.50;100758.91;6276857;22;45126;-74
2023/04/21 04:15:25;;;;;;;;;34.00;27.75;;;;;7.54;63.14;100750.19;6275433;22;45598;-74
2023/04/21 04:17:50;;;;;;;;;28.00;24.50;;;;;7.26;63.25;100711.50;6276941;22;45182;-74
2023/04/21 04:20:16;;;;;;;;;31.00;27.75;;;;;7.39;63.19;100733.84;6276911;22;44639;-74
2023/04/21 04:22:41;;;;;;;;;28.75;21.00;;;;;7.35;63.81;100734.59;6276795;22;45213;-73
2023/04/21 04:25:07;;;;;;;;;32.75;29.75;;;;;7.47;63.76;100745.53;6275843;22;46079;-74
2023/04/21 04:27:33;;;;;;;;;39.25;33.50;;;;;7.42;62.36;100733.94;6276869;22;45098;-74
2023/04/21 04:29:58;;;;;;;;;38.75;29.50;;;;;7.27;63.61;100710.66;6276578;22;45367;-74
2023/04/21 04:32:27;;;;;;;;;28.25;27.25;;;;;7.55;63.66;100751.97;6249029;22;46004;-74
2023/04/21 04:34:54;;;;;;;;;31.50;22.00;;;;;7.20;62.76;100699.84;6276249;22;45201;-74
2023/04/21 04:37:20;;;;;;;;;32.00;27.00;;;;;7.51;63.10;100752.72;6276249;22;45359;-74
2023/04/21 04:39:46;;;;;;;;;34.00;31.75;;;;;7.60;64.22;100757.41;6276349;22;45169;-74
2023/04/21 04:42:11;;;;;;;;;40.00;28.50;;;;;7.43;64.04;100733.13;6276725;22;45228;-74
2023/04/21 04:44:37;;;;;;;;;32.50;29.75;;;;;7.59;63.10;100764.41;6275812;22;48736;-74
2023/04/21 04:47:03;;;;;;;;;30.00;28.00;;;;;7.61;64.11;100760.06;6277279;22;45141;-74
2023/04/21 04:49:28;;;;;;;;;37.50;27.50;;;;;7.39;63.67;100715.44;6277895;22;45395;-74
2023/04/21 04:51:53;;;;;;;;;32.50;28.00;;;;;7.62;63.44;100751.38;6277964;22;45264;-74
2023/04/21 04:54:19;;;;;;;;;32.25;28.50;;;;;7.55;61.67;100736.19;6277522;22;52395;-74
2023/04/21 04:56:44;;;;;;;;;26.50;22.25;;;;;7.71;63.37;100760.41;6250150;22;45270;-74
2023/04/21 04:59:10;;;;;;;;;30.25;25.00;;;;;7.63;64.33;100752.25;6278034;22;45246;-74
2023/04/21 05:01:36;;;;;;;;;35.75;30.00;;;;;7.55;63.88;100733.56;6277496;22;45264;-73
2023/04/21 05:04:02;;;;;;;;;32.50;27.00;;;;;7.67;63.35;100751.50;6277762;22;45250;-74
2023/04/21 05:06:28;;;;;;;;;30.75;28.00;;;;;7.68;61.81;100758.56;6277258;22;45242;-74
2023/04/21 05:08:53;;;;;;;;;30.25;29.50;;;;;7.68;63.80;100762.94;6278142;22;45228;-74
2023/04/21 05:11:19;;;;;;;;;33.00;29.75;;;;;7.71;62.76;100756.03;6276448;22;45549;-74
2023/04/21 05:13:44;;;;;;;;;35.25;30.00;;;;;7.12;64.01;100647.03;6277613;22;45126;-74
2023/04/21 05:16:10;;;;;;;;;26.75;26.25;;;;;7.74;62.48;100755.25;6243622;22;45450;-74
2023/04/21 05:18:35;;;;;;;;;33.50;29.75;;;;;7.72;63.72;100743.78;6247349;22;45106;-74
2023/04/21 05:21:01;;;;;;;;;32.50;28.75;;;;;7.71;63.68;100740.25;6246495;22;44626;-74
2023/04/21 05:23:26;;;;;;;;;34.00;29.50;;;;;7.82;62.48;100752.06;6244916;22;46956;-74
2023/04/21 05:25:51;;;;;;;;;36.25;30.00;;;;;7.80;63.25;100748.47;6246330;22;45154;-73
2023/04/21 05:28:17;;;;;;;;;32.25;27.00;;;;;7.52;63.58;100706.25;6246755;22;45376;-73
2023/04/21 05:30:42;;;;;;;;;32.50;27.50;;;;;7.61;63.52;100714.47;6246168;22;45404;-72
2023/04/21 05:33:08;;;;;;;;;29.75;27.25;;;;;7.82;64.71;100748.53;6246847;22;45177;-73
2023/04/21 05:35:34;;;;;;;;;35.50;30.75;;;;;7.79;62.87;100738.78;6245304;22;45287;-73
2023/04/21 05:37:59;;;;;;;;;28.50;24.50;;;;;7.89;64.34;100752.25;6247188;22;45190;-72
2023/04/21 05:40:24;;;;;;;;;33.50;30.25;;;;;7.91;64.42;100742.69;6246195;22;45244;-73
2023/04/21 05:42:50;;;;;;;;;34.25;26.75;;;;;7.94;64.24;100748.06;6246740;22;45269;-72
2023/04/21 05:45:15;;;;;;;;;35.00;29.00;;;;;7.71;64.88;100692.03;6246355;22;45308;-73
2023/04/21 05:47:40;;;;;;;;;27.50;26.50;;;;;7.77;65.33;100702.75;6247145;22;45414;-73
2023/04/21 05:50:07;;;;;;;;;32.75;26.50;;;;;7.83;64.80;100706.47;6244047;22;46101;-72
2023/04/21 05:52:33;;;;;;;;;35.75;29.75;;;;;8.06;65.76;100749.34;6246680;22;46419;-73
2023/04/21 05:54:59;;;;;;;;;41.50;32.75;;;;;8.03;65.18;100732.56;6246449;22;45204;-72
2023/04/21 05:57:25;;;;;;;;;37.25;33.25;;;;;7.97;65.26;100727.09;6247137;22;45094;-73
2023/04/21 05:59:50;;;;;;;;;35.50;31.25;;;;;7.97;64.87;100716.56;6246168;22;45218;-73
2023/04/21 06:02:15;;;;;;;;;38.25;29.50;;;;;7.92;65.14;100711.13;6246533;22;46235;-73
2023/04/21 06:04:41;;;;;;;;;42.00;35.75;;;;;7.99;64.35;100713.16;6246253;22;50891;-74
2023/04/21 06:07:07;;;;;;;;;41.25;37.00;;;;;8.07;64.32;100742.38;6246736;22;45220;-74
2023/04/21 06:09:34;;;;;;;;;31.75;24.75;;;;;8.06;63.23;100732.66;6246725;22;45262;-73
2023/04/21 06:12:00;;;;;;;;;36.00;29.25;;;;;8.10;63.17;100738.94;6224933;22;45351;-75
2023/04/21 06:14:25;;;;;;;;;33.25;27.50;;;;;8.04;65.19;100737.00;6275240;22;45220;-74
2023/04/21 06:16:51;;;;;;;;;35.50;31.50;;;;;8.07;65.16;100745.88;6277934;22;45142;-74
2023/04/21 06:19:16;;;;;;;;;34.25;31.25;;;;;8.03;65.76;100733.44;6276232;22;45271;-74
2023/04/21 06:21:41;;;;;;;;;39.25;31.00;;;;;8.04;64.90;100732.63;6277094;22;45189;-73
2023/04/21 06:24:08;;;;;;;;;35.25;33.00;;;;;7.96;66.30;100713.03;6277714;22;45157;-73
2023/04/21 06:26:33;;;;;;;;;36.50;34.00;;;;;8.11;64.19;100736.34;6250056;22;44595;-72
2023/04/21 06:28:58;;;;;;;;;36.50;34.25;;;;;8.20;65.14;100746.28;6277577;22;45480;-74
2023/04/21 06:31:24;;;;;;;;;42.00;34.25;;;;;8.18;65.33;100745.34;6278152;22;46005;-75
2023/04/21 06:33:49;;;;;;;;;36.00;30.75;;;;;8.17;64.51;100740.91;6278097;22;45176;-74
2023/04/21 06:36:14;;;;;;;;;37.75;34.25;;;;;8.17;66.10;100743.53;6278480;22;45286;-74
2023/04/21 06:38:42;;;;;;;;;41.25;35.25;;;;;8.08;67.29;100718.72;6277775;22;45239;-74
2023/04/21 06:41:07;;;;;;;;;43.75;34.00;;;;;8.21;65.79;100738.44;6277322;22;46895;-74
2023/04/21 06:43:32;;;;;;;;;36.75;32.00;;;;;8.25;66.16;100739.44;6277385;22;45231;-74
2023/04/21 06:45:58;;;;;;;;;46.25;37.25;;;;;8.12;66.57;100717.06;6249964;22;45501;-73
2023/04/21 06:48:23;;;;;;;;;35.50;33.50;;;;;8.19;66.51;100732.22;6277600;22;45232;-74
2023/04/21 06:50:49;;;;;;;;;36.75;33.50;;;;;8.17;64.20;100723.38;6249457;22;47633;-73
2023/04/21 06:53:16;;;;;;;;;40.00;35.50;;;;;8.25;64.32;100745.59;6249772;22;45338;-73
2023/04/21 06:55:42;;;;;;;;;37.75;35.25;;;;;8.03;66.74;100703.59;6278032;22;45224;-74
2023/04/21 06:58:07;;;;;;;;;38.50;34.75;;;;;8.20;66.10;100728.75;6277302;22;45369;-74
2023/04/21 07:00:33;;;;;;;;;39.50;35.25;;;;;8.15;66.27;100718.91;6277696;22;46134;-73
2023/04/21 07:02:58;;;;;;;;;38.50;34.50;;;;;8.17;64.74;100731.28;6249803;22;45154;-73
2023/04/21 07:05:24;;;;;;;;;38.25;33.50;;;;;8.06;66.81;100722.13;6276933;22;45179;-73
2023/04/21 07:07:49;;;;;;;;;35.00;33.00;;;;;8.15;66.17;100742.59;6249950;22;45174;-73
2023/04/21 07:10:18;;;;;;;;;32.75;32.75;;;;;8.19;66.49;100740.13;6277029;22;45232;-75
2023/04/21 07:12:44;;;;;;;;;34.50;34.00;;;;;8.27;65.03;100735.13;6276709;22;45487;-73
2023/04/21 07:15:10;;;;;;;;;33.50;32.50;;;;;8.43;66.74;100737.44;6277298;22;45198;-73
2023/04/21 07:17:35;;;;;;;;;36.25;33.50;;;;;8.61;66.91;100737.09;6250185;22;45877;-73
2023/04/21 07:20:01;;;;;;;;;41.25;36.25;;;;;8.78;66.42;100735.00;6277150;22;45529;-73
2023/04/21 07:22:26;;;;;;;;;44.25;36.50;;;;;8.80;65.09;100722.75;6250386;22;45181;-73
2023/04/21 07:24:51;;;;;;;;;36.50;33.75;;;;;8.90;65.54;100722.16;6277114;22;45522;-74
2023/04/21 07:27:18;;;;;;;;;41.25;35.00;;;;;9.09;63.82;100733.28;6277168;22;54515;-74
2023/04/21 07:29:43;;;;;;;;;38.50;32.25;;;;;9.16;64.62;100727.34;6249677;22;47026;-76
2023/04/21 07:32:09;;;;;;;;;42.50;32.00;;;;;9.19;64.17;100706.31;6250112;22;45249;-77
2023/04/21 07:34:34;;;;;;;;;39.50;33.50;;;;;9.32;63.63;100721.63;6277563;22;45386;-76
2023/04/21 07:36:59;;;;;;;;;44.50;35.25;;;;;9.30;64.68;100718.06;6277727;22;45490;-75
2023/04/21 07:39:25;;;;;;;;;40.00;33.50;;;;;9.42;64.13;100720.16;6277413;22;45165;-76
2023/04/21 07:41:50;;;;;;;;;35.75;29.75;;;;;9.48;63.95;100719.44;6277250;22;45309;-76
2023/04/21 07:44:16;;;;;;;;;32.25;28.00;;;;;9.48;62.79;100712.41;6249604;22;45265;-76
2023/04/21 07:46:41;;;;;;;;;32.75;28.50;;;;;9.52;63.17;100711.66;6277648;22;45181;-75
2023/04/21 07:49:07;;;;;;;;;39.25;35.00;;;;;9.61;62.85;100708.38;6277227;22;45349;-75
2023/04/21 07:51:32;;;;;;;;;38.75;32.75;;;;;9.91;63.27;100708.25;6277784;22;45283;-75
2023/04/21 07:53:57;;;;;;;;;39.50;33.00;;;;;10.17;61.71;100703.63;6249704;22;45256;-76
2023/04/21 07:56:23;;;;;;;;;37.75;35.75;;;;;10.43;61.11;100711.31;6276646;22;52264;-76
2023/04/21 07:58:48;;;;;;;;;33.50;28.50;;;;;10.70;61.00;100711.94;6277245;22;46041;-75
2023/04/21 08:01:14;;;;;;;;;37.25;33.00;;;;;10.80;60.88;100680.41;6247885;22;45296;-76
2023/04/21 08:03:39;;;;;;;;;37.75;32.75;;;;;11.17;59.29;100692.63;6277617;22;45221;-76
2023/04/21 08:06:06;;;;;;;;;31.25;29.50;;;;;11.38;58.85;100703.66;6277295;22;45210;-76
2023/04/21 08:08:31;;;;;;;;;36.25;31.00;;;;;11.55;59.11;100703.09;6248859;22;47154;-76
2023/04/21 08:10:56;;;;;;;;;27.75;25.00;;;;;11.58;58.40;100692.56;6249464;22;45153;-76
2023/04/21 08:13:24;;;;;;;;;34.50;30.75;;;;;11.63;57.05;100698.84;6248676;22;45308;-76
2023/04/21 08:15:53;;;;;;;;;23.75;23.75;;;;;11.59;57.53;100687.28;6277005;22;45833;-77
2023/04/21 08:18:18;;;;;;;;;28.25;26.25;;;;;11.61;56.85;100672.31;6277299;22;45284;-73
2023/04/21 08:20:46;;;;;;;;;34.25;28.75;;;;;11.83;57.99;100700.06;6276212;22;44675;-77
2023/04/21 08:23:12;;;;;;;;;26.75;26.50;;;;;11.94;57.06;100710.91;6278164;22;45228;-74
2023/04/21 08:25:38;;;;;;;;;30.00;27.50;;;;;12.13;57.51;100696.22;6278354;22;45496;-73
2023/04/21 08:28:03;;;;;;;;;35.00;30.50;;;;;12.46;55.75;100695.84;6248735;22;47726;-73
2023/04/21 08:30:28;;;;;;;;;29.50;27.50;;;;;12.66;52.81;100690.81;6278609;22;45264;-74
2023/04/21 08:32:54;;;;;;;;;30.00;28.25;;;;;12.73;52.40;100676.75;6278445;22;45274;-75
2023/04/21 08:35:19;;;;;;;;;33.50;29.00;;;;;12.94;55.82;100692.09;6278587;22;45143;-75
2023/04/21 08:37:45;;;;;;;;;34.50;30.00;;;;;13.04;55.64;100703.69;6278151;22;45189;-76
2023/04/21 08:40:11;;;;;;;;;28.50;26.25;;;;;12.95;50.61;100704.47;6278460;22;45275;-75
2023/04/21 08:42:37;;;;;;;;;33.25;30.00;;;;;12.96;51.29;100705.34;6278028;22;45304;-75
2023/04/21 08:45:04;;;;;;;;;27.75;26.25;;;;;12.86;52.21;100685.78;6278457;22;45256;-75
2023/04/21 08:47:31;;;;;;;;;30.25;28.75;;;;;13.03;51.88;100701.03;6277794;22;45310;-75
2023/04/21 08:49:56;;;;;;;;;29.75;25.00;;;;;13.21;51.45;100682.66;6278460;22;45279;-74
2023/04/21 08:52:21;;;;;;;;;29.00;25.75;;;;;13.43;50.56;100698.00;6278309;22;45218;-76
2023/04/21 08:54:50;;;;;;;;;34.75;31.50;;;;;13.58;49.76;100676.03;6278117;22;45887;-76
2023/04/21 08:57:16;;;;;;;;;27.25;25.75;;;;;14.03;50.88;100695.03;6276733;22;46311;-76
2023/04/21 08:59:42;;;;;;;;;27.75;27.75;;;;;14.20;50.89;100676.53;6278294;22;45271;-75
2023/04/21 09:02:10;;;;;;;;;32.50;28.50;;;;;14.64;49.14;100694.63;6278146;22;45233;-76
2023/04/21 09:04:40;;;;;;;;;28.25;24.25;;;;;15.10;46.93;100682.44;6277938;22;45317;-76
2023/04/21 09:07:07;;;;;;;;;30.00;25.50;;;;;15.37;45.06;100676.28;6276259;22;45249;-76
2023/04/21 09:09:32;;;;;;;;;24.50;24.50;;;;;15.56;47.56;100681.69;6278061;22;45307;-78
2023/04/21 09:11:58;;;;;;;;;25.50;24.00;;;;;15.71;43.87;100684.41;6248737;22;45271;-77
2023/04/21 09:14:34;;;;;;;;;27.00;23.75;;;;;15.85;48.98;100687.06;6249999;22;46420;-77
2023/04/21 09:17:02;;;;;;;;;24.50;21.75;;;;;16.02;49.61;100682.66;6277323;22;45264;-76
2023/04/21 09:19:28;;;;;;;;;20.50;19.75;;;;;15.89;46.04;100670.22;6278262;22;45153;-76
2023/04/21 09:21:53;;;;;;;;;25.75;21.75;;;;;15.80;43.36;100694.19;6278153;22;45410;-77
2023/04/21 09:24:19;;;;;;;;;22.25;19.75;;;;;15.55;42.75;100683.47;6250645;22;46098;-76
2023/04/21 09:26:50;;;;;;;;;23.75;23.75;;;;;15.58;45.11;100688.78;6277802;22;45496;-76
2023/04/21 09:29:16;;;;;;;;;21.75;19.00;;;;;15.14;43.22;100681.56;6278415;22;45386;-74
2023/04/21 09:31:43;;;;;;;;;21.50;21.00;;;;;15.10;43.17;100697.53;6278175;22;45144;-75
2023/04/21 09:34:20;;;;;;;;;20.00;20.00;;;;;15.05;44.89;100700.16;6278180;22;45121;-75
2023/04/21 09:36:46;;;;;;;;;21.25;19.00;;;;;15.02;43.78;100686.84;6277797;22;45262;-75
2023/04/21 09:39:12;;;;;;;;;22.00;20.00;;;;;14.96;46.92;100677.06;6278183;22;45280;-75
2023/04/21 09:41:37;;;;;;;;;23.25;18.25;;;;;14.92;44.21;100674.38;6277504;22;45458;-76
2023/04/21 09:44:03;;;;;;;;;24.25;22.25;;;;;14.92;44.45;100690.34;6278074;22;45255;-75
2023/04/21 09:46:32;;;;;;;;;24.75;23.25;;;;;14.83;47.36;100671.66;6249950;22;45705;-75
2023/04/21 09:49:00;;;;;;;;;25.75;23.25;;;;;14.80;45.99;100677.88;6277951;22;45345;-76
2023/04/21 09:51:26;;;;;;;;;28.00;23.00;;;;;14.81;46.15;100673.44;6277268;22;45222;-75
2023/04/21 09:53:55;;;;;;;;;24.00;21.75;;;;;14.89;44.75;100680.56;6276408;22;45426;-75
2023/04/21 09:56:24;;;;;;;;;24.50;21.75;;;;;15.02;45.38;100683.28;6277567;22;45482;-75
2023/04/21 09:58:53;;;;;;;;;25.50;23.75;;;;;15.06;44.26;100682.41;6277783;22;45296;-76
2023/04/21 10:01:21;;;;;;;;;28.25;25.00;;;;;14.86;44.06;100669.91;6278209;22;45429;-75
2023/04/21 10:03:47;;;;;;;;;21.25;18.00;;;;;14.92;45.92;100683.22;6277755;22;45176;-76
2023/04/21 10:06:14;;;;;;;;;18.25;18.25;;;;;14.94;44.15;100683.25;6275767;22;46141;-76
2023/04/21 10:08:40;;;;;;;;;24.50;24.00;;;;;14.91;43.51;100678.81;6250110;22;45238;-75
2023/04/21 10:11:07;;;;;;;;;22.00;17.25;;;;;14.90;43.58;100671.72;6277367;22;45225;-76
2023/04/21 10:13:33;;;;;;;;;22.75;22.75;;;;;14.95;43.90;100669.06;6248634;22;46047;-75
2023/04/21 10:16:06;;;;;;;;;24.50;21.75;;;;;15.00;46.12;100678.84;6277861;22;46365;-75
2023/04/21 10:18:37;;;;;;;;;36.25;33.00;;;;;14.94;45.21;100680.59;6249011;22;45261;-76
2023/04/21 10:21:10;;;;;;;;;21.25;21.25;;;;;14.66;44.64;100667.16;6249860;22;45255;-74
2023/04/21 10:23:44;;;;;;;;;23.75;23.75;;;;;14.63;43.96;100675.13;6277729;22;45241;-74
2023/04/21 10:26:18;;;;;;;;;24.50;22.75;;;;;14.54;43.75;100673.28;6277793;22;45299;-77
2023/04/21 10:28:53;;;;;;;;;29.00;24.00;;;;;14.50;44.20;100663.47;6276512;22;45314;-77
2023/04/21 10:31:31;;;;;;;;;27.25;23.75;;;;;14.59;46.11;100670.66;6277572;22;44745;-73
2023/04/21 10:34:08;;;;;;;;;23.75;22.25;;;;;14.54;45.52;100661.78;6250119;22;45599;-73
2023/04/21 10:36:41;;;;;;;;;29.75;27.50;;;;;14.49;42.85;100655.50;6276709;22;45305;-76
2023/04/21 10:39:07;;;;;;;;;28.50;23.25;;;;;14.59;42.70;100662.69;6249703;22;45272;-74
2023/04/21 10:41:33;;;;;;;;;39.25;34.00;;;;;14.53;41.87;100641.34;6249337;22;45318;-75
2023/04/21 10:44:06;;;;;;;;;27.25;25.25;;;;;14.72;42.08;100661.84;6277582;22;45657;-75
2023/04/21 10:46:33;;;;;;;;;24.00;22.00;;;;;14.83;42.12;100645.06;6275992;22;46296;-74
2023/04/21 10:49:24;;;;;;;;;26.00;24.00;;;;;14.95;42.71;100648.63;6277576;22;45298;-74
2023/04/21 10:52:02;;;;;;;;;29.00;27.75;;;;;15.10;42.63;100642.50;6277123;22;45368;-75
2023/04/21 10:54:35;;;;;;;;;28.00;24.50;;;;;15.23;43.81;100648.75;6250020;22;45414;-74
2023/04/21 10:57:00;;;;;;;;;24.75;21.25;;;;;15.26;42.53;100638.09;6276235;22;47205;-75
2023/04/21 10:59:26;;;;;;;;;46.25;39.00;;;;;15.33;42.58;100631.03;6278023;22;45141;-74
2023/04/21 11:01:51;;;;;;;;;33.00;30.75;;;;;15.41;40.75;100634.59;6277467;22;45154;-74
2023/04/21 11:04:21;;;;;;;;;28.25;26.25;;;;;15.50;44.36;100629.28;6278019;22;45315;-74
2023/04/21 11:07:06;;;;;;;;;28.00;24.50;;;;;15.41;43.83;100634.59;6249891;22;45634;-74
2023/04/21 11:09:32;;;;;;;;;29.50;26.25;;;;;15.21;41.82;100608.81;6278723;22;45307;-74
2023/04/21 11:12:03;;;;;;;;;36.00;30.75;;;;;15.39;41.79;100623.94;6276610;22;45283;-75